Time;durP1;ratioP1;P1;durP2;ratioP2;P2;SDS_P1;SDS_P2;PMS_P1;PMS_P2;Temp;Humidity;BMP_temperature;BMP_pressure;BME280_temperature;BME280_humidity;BME280_pressure;Samples;Min_cycle;Max_cycle;Signal;HPM_P1;HPM_P2
2021/10/11 00:00:35;;;;;;;81.57;26.63;;;;;;;-145.18;0.00;102943.50;5067744;28;20603;-72
2021/10/11 00:03:00;;;;;;;74.77;25.47;;;;;;;-145.18;0.00;102943.50;5070137;28;20035;-72
2021/10/11 00:05:26;;;;;;;90.80;27.07;;;;;;;-145.18;0.00;102943.50;5076381;28;20111;-72
2021/10/11 00:07:51;;;;;;;85.17;26.90;;;;;;;-145.18;0.00;102943.50;5067052;28;20033;-72
2021/10/11 00:10:20;;;;;;;80.13;25.50;;;;;;;-145.18;0.00;102943.50;5072876;28;20055;-71
2021/10/11 00:12:48;;;;;;;87.20;27.53;;;;;;;-145.18;0.00;102943.50;5074489;28;20107;-72
2021/10/11 00:15:14;;;;;;;85.97;27.63;;;;;;;-145.18;0.00;102943.50;5075729;28;20539;-72
2021/10/11 00:17:39;;;;;;;95.67;27.67;;;;;;;-145.18;0.00;102943.50;5077010;28;20070;-71
2021/10/11 00:20:05;;;;;;;83.37;27.47;;;;;;;-145.18;0.00;102943.50;5076888;28;20058;-72
2021/10/11 00:22:31;;;;;;;92.60;27.00;;;;;;;-145.18;0.00;102943.50;5076426;28;20036;-72
2021/10/11 00:25:00;;;;;;;90.80;27.17;;;;;;;-145.18;0.00;102943.50;5071035;28;20321;-72
2021/10/11 00:27:25;;;;;;;92.63;26.97;;;;;;;-145.18;0.00;102943.50;5071018;28;20082;-71
2021/10/11 00:29:51;;;;;;;87.87;26.43;;;;;;;-145.18;0.00;102943.50;5076174;28;20405;-71
2021/10/11 00:32:19;;;;;;;86.13;25.67;;;;;;;-145.18;0.00;102943.50;5082200;28;20494;-71
2021/10/11 00:34:45;;;;;;;90.93;26.07;;;;;;;-145.18;0.00;102943.50;5079212;28;20024;-71
2021/10/11 00:37:10;;;;;;;101.90;26.80;;;;;;;-145.18;0.00;102943.50;5076703;28;20421;-71
2021/10/11 00:39:36;;;;;;;93.00;24.87;;;;;;;-145.18;0.00;102943.50;5076470;28;20039;-72
2021/10/11 00:42:01;;;;;;;85.20;24.03;;;;;;;-145.18;0.00;102943.50;5077957;28;20035;-71
2021/10/11 00:44:27;;;;;;;92.90;24.60;;;;;;;-145.18;0.00;102943.50;5073740;28;20024;-72
2021/10/11 00:46:53;;;;;;;95.73;24.83;;;;;;;-145.18;0.00;102943.50;5081035;28;20035;-72
2021/10/11 00:49:18;;;;;;;92.23;25.53;;;;;;;-145.18;0.00;102943.50;5076948;28;20028;-72
2021/10/11 00:51:44;;;;;;;103.70;26.53;;;;;;;-145.18;0.00;102943.50;5072723;28;20043;-72
2021/10/11 00:54:10;;;;;;;96.10;24.47;;;;;;;-145.18;0.00;102943.50;5080931;28;20068;-72
2021/10/11 00:56:35;;;;;;;106.67;26.53;;;;;;;-145.18;0.00;102943.50;5080584;28;20099;-72
2021/10/11 00:59:01;;;;;;;98.50;25.60;;;;;;;-145.18;0.00;102943.50;5075353;28;20028;-72
2021/10/11 01:01:26;;;;;;;98.80;24.70;;;;;;;-145.18;0.00;102943.50;5077622;28;20036;-73
2021/10/11 01:03:52;;;;;;;101.90;26.47;;;;;;;-145.18;0.00;102943.50;5079321;28;20193;-72
2021/10/11 01:06:18;;;;;;;101.87;26.73;;;;;;;-145.18;0.00;102943.50;5080197;28;20016;-72
2021/10/11 01:08:44;;;;;;;101.47;26.17;;;;;;;-145.18;0.00;102943.50;5080886;28;20039;-72
2021/10/11 01:11:09;;;;;;;102.83;26.80;;;;;;;-145.18;0.00;102943.50;5070011;28;20196;-72
2021/10/11 01:13:35;;;;;;;91.53;24.37;;;;;;;-145.18;0.00;102943.50;5079910;28;20492;-72
2021/10/11 01:16:00;;;;;;;100.83;25.03;;;;;;;-145.18;0.00;102943.50;5078079;28;20024;-73
2021/10/11 01:18:26;;;;;;;88.47;24.27;;;;;;;-145.18;0.00;102943.50;5081638;28;20104;-72
2021/10/11 01:20:52;;;;;;;97.60;23.50;;;;;;;-145.18;0.00;102943.50;5081388;28;20082;-73
2021/10/11 01:23:17;;;;;;;115.50;26.07;;;;;;;-145.18;0.00;102943.50;5080471;28;20040;-73
2021/10/11 01:25:43;;;;;;;98.40;24.23;;;;;;;-145.18;0.00;102943.50;5080545;28;20047;-73
2021/10/11 01:28:09;;;;;;;107.83;25.07;;;;;;;-145.18;0.00;102943.50;5069009;28;20215;-73
2021/10/11 01:30:34;;;;;;;110.33;24.63;;;;;;;-145.18;0.00;102943.50;5076243;28;20089;-73
2021/10/11 01:33:01;;;;;;;104.63;25.40;;;;;;;-145.18;0.00;102943.50;5081750;28;20032;-73
2021/10/11 01:35:27;;;;;;;104.40;24.77;;;;;;;-145.18;0.00;102943.50;5069440;28;20096;-72
2021/10/11 01:37:52;;;;;;;110.60;24.57;;;;;;;-145.18;0.00;102943.50;5068466;28;20033;-72
2021/10/11 01:40:20;;;;;;;107.07;25.47;;;;;;;-145.18;0.00;102943.50;5076324;28;20028;-73
2021/10/11 01:42:46;;;;;;;101.47;24.67;;;;;;;-145.18;0.00;102943.50;5071918;28;20119;-73
2021/10/11 01:45:12;;;;;;;116.60;24.43;;;;;;;-145.18;0.00;102943.50;5070505;28;20840;-73
2021/10/11 01:47:37;;;;;;;121.27;25.00;;;;;;;-145.18;0.00;102943.50;5081504;28;20048;-73
2021/10/11 01:50:03;;;;;;;131.27;26.43;;;;;;;-145.18;0.00;102943.50;5066591;28;20032;-73
2021/10/11 01:52:29;;;;;;;129.03;25.80;;;;;;;-145.18;0.00;102943.50;5075303;28;20040;-72
2021/10/11 01:54:54;;;;;;;118.50;25.97;;;;;;;-145.18;0.00;102943.50;5066569;28;20039;-72
2021/10/11 01:57:20;;;;;;;118.07;25.23;;;;;;;-145.18;0.00;102943.50;5073759;28;20028;-72
2021/10/11 01:59:45;;;;;;;138.27;25.07;;;;;;;-145.18;0.00;102943.50;5070000;28;20108;-72
2021/10/11 02:02:11;;;;;;;145.27;24.47;;;;;;;-145.18;0.00;102943.50;5071599;28;20600;-72
2021/10/11 02:04:36;;;;;;;146.50;26.00;;;;;;;-145.18;0.00;102943.50;5078768;28;20318;-72
2021/10/11 02:07:02;;;;;;;122.37;24.27;;;;;;;-145.18;0.00;102943.50;5075040;28;20287;-73
2021/10/11 02:09:28;;;;;;;147.63;25.30;;;;;;;-145.18;0.00;102943.50;5069336;28;20432;-73
2021/10/11 02:11:53;;;;;;;159.07;25.73;;;;;;;-145.18;0.00;102943.50;5079988;28;20109;-73
2021/10/11 02:14:19;;;;;;;150.67;27.10;;;;;;;-145.18;0.00;102943.50;5070563;28;20039;-73
2021/10/11 02:16:45;;;;;;;163.60;28.33;;;;;;;-145.18;0.00;102943.50;5072389;28;20024;-73
2021/10/11 02:19:10;;;;;;;145.57;25.97;;;;;;;-145.18;0.00;102943.50;5072580;28;20899;-73
2021/10/11 02:21:36;;;;;;;145.93;25.77;;;;;;;-145.18;0.00;102943.50;5080179;28;20101;-72
2021/10/11 02:24:02;;;;;;;151.00;25.27;;;;;;;-145.18;0.00;102943.50;5075168;28;20123;-73
2021/10/11 02:26:27;;;;;;;158.13;26.60;;;;;;;-145.18;0.00;102943.50;5071486;28;20557;-72
2021/10/11 02:28:53;;;;;;;144.23;25.07;;;;;;;-145.18;0.00;102943.50;5077831;28;20023;-73
2021/10/11 02:31:18;;;;;;;137.03;24.47;;;;;;;-145.18;0.00;102943.50;5076583;28;20349;-73
2021/10/11 02:33:45;;;;;;;135.57;24.77;;;;;;;-145.18;0.00;102943.50;5063420;28;20040;-73
2021/10/11 02:36:11;;;;;;;147.97;26.17;;;;;;;-145.18;0.00;102943.50;5074984;28;20025;-72
2021/10/11 02:38:36;;;;;;;157.37;26.77;;;;;;;-145.18;0.00;102943.50;5072860;28;20349;-73
2021/10/11 02:41:02;;;;;;;137.33;25.73;;;;;;;-145.18;0.00;102943.50;5073839;28;20153;-73
2021/10/11 02:43:28;;;;;;;153.77;25.10;;;;;;;-145.18;0.00;102943.50;5064477;28;20310;-72
2021/10/11 02:45:53;;;;;;;156.37;25.87;;;;;;;-145.18;0.00;102943.50;5074732;28;20490;-72
2021/10/11 02:48:19;;;;;;;142.63;24.93;;;;;;;-145.18;0.00;102943.50;5065338;28;20220;-73
2021/10/11 02:50:44;;;;;;;147.87;26.17;;;;;;;-145.18;0.00;102943.50;5062418;28;20093;-72
2021/10/11 02:53:10;;;;;;;158.93;24.60;;;;;;;-145.18;0.00;102943.50;5063481;28;20031;-73
2021/10/11 02:55:36;;;;;;;159.37;25.43;;;;;;;-145.18;0.00;102943.50;5080255;28;20023;-72
2021/10/11 02:58:01;;;;;;;131.83;24.17;;;;;;;-145.18;0.00;102943.50;5069134;28;20624;-72
2021/10/11 03:00:27;;;;;;;167.60;26.20;;;;;;;-145.18;0.00;102943.50;5078835;28;20626;-72
2021/10/11 03:02:52;;;;;;;144.37;24.80;;;;;;;-145.18;0.00;102943.50;5066970;28;20379;-72
2021/10/11 03:05:18;;;;;;;146.63;23.73;;;;;;;-145.18;0.00;102943.50;5075452;28;20042;-72
2021/10/11 03:07:44;;;;;;;145.37;25.00;;;;;;;-145.18;0.00;102943.50;5072010;28;20028;-72
2021/10/11 03:10:09;;;;;;;131.40;23.23;;;;;;;-145.18;0.00;102943.50;5069281;28;20271;-72
2021/10/11 03:12:35;;;;;;;149.47;23.90;;;;;;;-145.18;0.00;102943.50;5069859;28;20132;-72
2021/10/11 03:15:02;;;;;;;138.20;23.50;;;;;;;-145.18;0.00;102943.50;5077240;28;20043;-72
2021/10/11 03:17:28;;;;;;;142.30;22.83;;;;;;;-145.18;0.00;102943.50;5078763;28;20348;-72
2021/10/11 03:19:53;;;;;;;126.80;21.50;;;;;;;-145.18;0.00;102943.50;5078934;28;20039;-72
2021/10/11 03:22:18;;;;;;;134.93;22.80;;;;;;;-145.18;0.00;102943.50;5067002;28;20066;-72
2021/10/11 03:24:44;;;;;;;119.27;20.37;;;;;;;-145.18;0.00;102943.50;5075558;28;20238;-72
2021/10/11 03:27:09;;;;;;;108.33;20.07;;;;;;;-145.18;0.00;102943.50;5067429;28;20028;-72
2021/10/11 03:29:35;;;;;;;119.50;19.83;;;;;;;-145.18;0.00;102943.50;5071256;28;20563;-72
2021/10/11 03:32:00;;;;;;;118.30;20.13;;;;;;;-145.18;0.00;102943.50;5076841;28;20063;-72
2021/10/11 03:34:26;;;;;;;99.80;17.63;;;;;;;-145.18;0.00;102943.50;5066926;28;20043;-72
2021/10/11 03:36:51;;;;;;;115.70;18.73;;;;;;;-145.18;0.00;102943.50;5076304;28;20237;-72
2021/10/11 03:39:17;;;;;;;120.97;19.37;;;;;;;-145.18;0.00;102943.50;5062658;28;20254;-72
2021/10/11 03:41:42;;;;;;;99.23;18.93;;;;;;;-145.18;0.00;102943.50;5059877;28;20629;-72
2021/10/11 03:44:08;;;;;;;103.27;17.87;;;;;;;-145.18;0.00;102943.50;5077238;28;20016;-72
2021/10/11 03:46:34;;;;;;;94.87;17.20;;;;;;;-145.18;0.00;102943.50;5073079;28;20565;-71
2021/10/11 03:49:00;;;;;;;106.50;17.73;;;;;;;-145.18;0.00;102943.50;5073100;28;20486;-72
2021/10/11 03:51:25;;;;;;;97.33;17.17;;;;;;;-145.18;0.00;102943.50;5078931;28;20111;-72
2021/10/11 03:53:51;;;;;;;93.93;16.33;;;;;;;-145.18;0.00;102943.50;5071143;28;20118;-72
2021/10/11 03:56:17;;;;;;;87.90;16.27;;;;;;;-145.18;0.00;102943.50;5078466;28;20081;-72
2021/10/11 03:58:42;;;;;;;84.57;15.47;;;;;;;-145.18;0.00;102943.50;5068971;28;20442;-72
2021/10/11 04:01:08;;;;;;;95.07;16.00;;;;;;;-145.18;0.00;102943.50;5065824;28;20033;-72
2021/10/11 04:03:34;;;;;;;91.33;15.13;;;;;;;-145.18;0.00;102943.50;5064468;28;20043;-72
2021/10/11 04:05:59;;;;;;;76.83;15.20;;;;;;;-145.18;0.00;102943.50;5077856;28;20032;-72
2021/10/11 04:08:33;;;;;;;88.30;14.63;;;;;;;-145.18;0.00;102943.50;5072528;28;20028;-72
2021/10/11 04:13:48;;;;;;;85.53;14.23;;;;;;;-145.18;0.00;102943.50;5063101;28;20355;-72
2021/10/11 04:16:14;;;;;;;82.50;14.37;;;;;;;-145.18;0.00;102943.50;5058499;28;20099;-72
2021/10/11 04:18:40;;;;;;;66.77;13.10;;;;;;;-145.18;0.00;102943.50;5071622;28;20036;-72
2021/10/11 04:21:06;;;;;;;68.07;12.97;;;;;;;-145.18;0.00;102943.50;5072202;28;20066;-72
2021/10/11 04:23:32;;;;;;;62.00;12.13;;;;;;;-145.18;0.00;102943.50;5074501;28;20569;-72
2021/10/11 04:26:01;;;;;;;65.70;13.20;;;;;;;-145.18;0.00;102943.50;5073601;28;20271;-72
2021/10/11 04:28:26;;;;;;;58.83;12.50;;;;;;;-145.18;0.00;102943.50;5064271;28;20481;-72
2021/10/11 04:30:52;;;;;;;68.07;12.60;;;;;;;-145.18;0.00;102943.50;5073449;28;20056;-72
2021/10/11 04:33:21;;;;;;;67.47;12.60;;;;;;;-145.18;0.00;102943.50;5064668;28;20024;-72
2021/10/11 04:35:46;;;;;;;68.03;12.47;;;;;;;-145.18;0.00;102943.50;5069485;28;20187;-72
2021/10/11 04:38:12;;;;;;;60.97;11.00;;;;;;;-145.18;0.00;102943.50;5070106;28;20386;-72
2021/10/11 04:40:38;;;;;;;78.57;13.03;;;;;;;-145.18;0.00;102943.50;5060725;28;20214;-72
2021/10/11 04:43:04;;;;;;;58.47;12.60;;;;;;;-145.18;0.00;102943.50;5061380;28;20028;-72
2021/10/11 04:45:30;;;;;;;52.60;10.60;;;;;;;-145.18;0.00;102943.50;5073491;28;20036;-72
2021/10/11 04:47:56;;;;;;;53.93;11.07;;;;;;;-145.18;0.00;102943.50;5066626;28;20486;-72
2021/10/11 04:50:22;;;;;;;59.27;12.33;;;;;;;-145.18;0.00;102943.50;5062241;28;20036;-72
2021/10/11 04:52:48;;;;;;;73.70;12.17;;;;;;;-145.18;0.00;102943.50;5068677;28;20368;-72
2021/10/11 04:55:13;;;;;;;57.97;10.67;;;;;;;-145.18;0.00;102943.50;5068470;28;20359;-72
2021/10/11 04:57:39;;;;;;;60.73;10.87;;;;;;;-145.18;0.00;102943.50;5060098;28;20035;-72
2021/10/11 05:00:06;;;;;;;51.83;10.80;;;;;;;-145.18;0.00;102943.50;5067058;28;20165;-72
2021/10/11 05:02:31;;;;;;;43.20;9.90;;;;;;;-145.18;0.00;102943.50;5055007;28;20050;-72
2021/10/11 05:04:57;;;;;;;46.60;9.33;;;;;;;-145.18;0.00;102943.50;5063553;28;20378;-72
2021/10/11 05:07:22;;;;;;;47.67;9.50;;;;;;;-145.18;0.00;102943.50;5066593;28;20025;-72
2021/10/11 05:09:48;;;;;;;45.93;9.33;;;;;;;-145.18;0.00;102943.50;5068444;28;20289;-72
2021/10/11 05:12:13;;;;;;;42.77;8.33;;;;;;;-145.18;0.00;102943.50;5064036;28;20068;-72
2021/10/11 05:14:39;;;;;;;46.27;8.80;;;;;;;-145.18;0.00;102943.50;5061558;28;20050;-72
2021/10/11 05:17:04;;;;;;;46.57;8.83;;;;;;;-145.18;0.00;102943.50;5061468;28;20526;-72
2021/10/11 05:19:30;;;;;;;38.90;9.33;;;;;;;-145.18;0.00;102943.50;5073639;28;20039;-72
2021/10/11 05:21:56;;;;;;;54.60;14.30;;;;;;;-145.18;0.00;102943.50;5081665;28;20028;-73
2021/10/11 05:24:25;;;;;;;42.87;8.97;;;;;;;-145.18;0.00;102943.50;5071145;28;20276;-71
2021/10/11 05:26:54;;;;;;;42.53;8.10;;;;;;;-145.18;0.00;102943.50;5061679;28;20556;-72
2021/10/11 05:29:20;;;;;;;46.37;8.50;;;;;;;-145.18;0.00;102943.50;5070883;28;20433;-72
2021/10/11 05:31:46;;;;;;;42.43;8.27;;;;;;;-145.18;0.00;102943.50;5081403;28;20024;-72
2021/10/11 05:34:13;;;;;;;43.90;9.17;;;;;;;-145.18;0.00;102943.50;5080883;28;20036;-72
2021/10/11 05:36:39;;;;;;;44.70;8.70;;;;;;;-145.18;0.00;102943.50;5066735;28;20633;-72
2021/10/11 05:39:05;;;;;;;43.60;9.00;;;;;;;-145.18;0.00;102943.50;5069351;28;20184;-71
2021/10/11 05:41:30;;;;;;;43.37;8.77;;;;;;;-145.18;0.00;102943.50;5081334;28;20020;-72
2021/10/11 05:43:56;;;;;;;42.70;9.00;;;;;;;-145.18;0.00;102943.50;5069364;28;20089;-72
2021/10/11 05:46:21;;;;;;;44.60;8.83;;;;;;;-145.18;0.00;102943.50;5081415;28;20187;-72
2021/10/11 05:48:47;;;;;;;39.90;8.07;;;;;;;-145.18;0.00;102943.50;5078899;28;20056;-71
2021/10/11 05:51:12;;;;;;;40.60;8.87;;;;;;;-145.18;0.00;102943.50;5062518;28;20035;-72
2021/10/11 05:53:38;;;;;;;32.43;7.83;;;;;;;-145.18;0.00;102943.50;5076820;28;20083;-72
2021/10/11 05:56:04;;;;;;;42.33;8.13;;;;;;;-145.18;0.00;102943.50;5061201;28;20161;-72
2021/10/11 05:58:29;;;;;;;30.53;7.83;;;;;;;-145.18;0.00;102943.50;5063913;28;20366;-72
2021/10/11 06:00:55;;;;;;;37.80;7.60;;;;;;;-145.18;0.00;102943.50;5080679;28;20028;-72
2021/10/11 06:03:20;;;;;;;32.27;7.03;;;;;;;-145.18;0.00;102943.50;5078782;28;20028;-71
2021/10/11 06:05:46;;;;;;;30.23;7.63;;;;;;;-145.18;0.00;102943.50;5061534;28;20032;-71
2021/10/11 06:08:11;;;;;;;29.27;6.00;;;;;;;-145.18;0.00;102943.50;5079378;28;20393;-72
2021/10/11 06:10:37;;;;;;;25.23;5.80;;;;;;;-145.18;0.00;102943.50;5080541;28;20265;-72
2021/10/11 06:13:03;;;;;;;25.10;6.10;;;;;;;-145.18;0.00;102943.50;5081021;28;20474;-72
2021/10/11 06:15:28;;;;;;;22.13;5.30;;;;;;;-145.18;0.00;102943.50;5060780;28;20032;-72
2021/10/11 06:17:54;;;;;;;23.27;5.10;;;;;;;-145.18;0.00;102943.50;5060788;28;20082;-72
2021/10/11 06:20:19;;;;;;;19.47;4.83;;;;;;;-145.18;0.00;102943.50;5078517;28;20386;-71
2021/10/11 06:22:45;;;;;;;25.07;4.97;;;;;;;-145.18;0.00;102943.50;5080559;28;20299;-72
2021/10/11 06:25:10;;;;;;;35.20;8.93;;;;;;;-145.18;0.00;102943.50;5079359;28;20028;-71
2021/10/11 06:27:37;;;;;;;16.43;4.47;;;;;;;-145.18;0.00;102943.50;5080351;28;20259;-72
2021/10/11 06:30:04;;;;;;;21.73;5.30;;;;;;;-145.18;0.00;102943.50;5063666;28;20040;-72
2021/10/11 06:32:29;;;;;;;17.03;4.50;;;;;;;-145.18;0.00;102943.50;5060606;28;20249;-72
2021/10/11 06:34:55;;;;;;;18.50;4.73;;;;;;;-145.18;0.00;102943.50;5075345;28;20574;-72
2021/10/11 06:37:21;;;;;;;21.27;5.20;;;;;;;-145.18;0.00;102943.50;5080437;28;20156;-73
2021/10/11 06:39:47;;;;;;;26.00;5.80;;;;;;;-145.18;0.00;102943.50;5066295;28;20032;-72
2021/10/11 06:42:12;;;;;;;15.93;4.10;;;;;;;-145.18;0.00;102943.50;5060026;28;20029;-72
2021/10/11 06:44:37;;;;;;;12.20;4.47;;;;;;;-145.18;0.00;102943.50;5072425;28;20028;-72
2021/10/11 06:47:03;;;;;;;11.23;3.53;;;;;;;-145.18;0.00;102943.50;5080291;28;20288;-72
2021/10/11 06:49:29;;;;;;;20.90;3.53;;;;;;;-145.18;0.00;102943.50;5067950;28;20253;-73
2021/10/11 06:51:54;;;;;;;16.63;4.37;;;;;;;-145.18;0.00;102943.50;5059495;28;20035;-72
2021/10/11 06:54:20;;;;;;;16.57;3.90;;;;;;;-145.18;0.00;102943.50;5069659;28;20442;-72
2021/10/11 06:56:45;;;;;;;15.87;3.80;;;;;;;-145.18;0.00;102943.50;5079789;28;20138;-72
2021/10/11 06:59:10;;;;;;;17.93;3.97;;;;;;;-145.18;0.00;102943.50;5070818;28;20106;-72
2021/10/11 07:01:36;;;;;;;16.60;3.57;;;;;;;-145.18;0.00;102943.50;5058936;28;20051;-72
2021/10/11 07:04:02;;;;;;;14.53;3.00;;;;;;;-145.18;0.00;102943.50;5067129;28;20028;-72
2021/10/11 07:06:27;;;;;;;12.97;3.60;;;;;;;-145.18;0.00;102943.50;5079776;28;20024;-71
2021/10/11 07:08:53;;;;;;;19.33;3.43;;;;;;;-145.18;0.00;102943.50;5073203;28;20388;-72
2021/10/11 07:11:19;;;;;;;13.93;3.53;;;;;;;-145.18;0.00;102943.50;5070333;28;20079;-72
2021/10/11 07:13:45;;;;;;;13.47;2.80;;;;;;;-145.18;0.00;102943.50;5078389;28;20432;-72
2021/10/11 07:16:10;;;;;;;11.93;3.30;;;;;;;-145.18;0.00;102943.50;5079741;28;20036;-72
2021/10/11 07:18:38;;;;;;;11.90;2.83;;;;;;;-145.18;0.00;102943.50;5075467;28;20639;-72
2021/10/11 07:21:05;;;;;;;11.33;3.30;;;;;;;-145.18;0.00;102943.50;5059291;28;20025;-72
2021/10/11 07:23:32;;;;;;;7.83;2.60;;;;;;;-145.18;0.00;102943.50;5073176;28;20413;-72
2021/10/11 07:25:59;;;;;;;11.03;2.77;;;;;;;-145.18;0.00;102943.50;5064606;28;20017;-72
2021/10/11 07:28:25;;;;;;;10.07;2.80;;;;;;;-145.18;0.00;102943.50;5061877;28;20051;-73
2021/10/11 07:30:52;;;;;;;6.93;2.60;;;;;;;-145.18;0.00;102943.50;5079690;28;20074;-73
2021/10/11 07:33:18;;;;;;;10.57;2.47;;;;;;;-145.18;0.00;102943.50;5077105;28;20382;-71
2021/10/11 07:35:43;;;;;;;8.93;2.40;;;;;;;-145.18;0.00;102943.50;5059057;28;20285;-72
2021/10/11 07:38:09;;;;;;;6.77;2.60;;;;;;;-145.18;0.00;102943.50;5059397;28;20032;-72
2021/10/11 07:40:34;;;;;;;10.80;2.80;;;;;;;-145.18;0.00;102943.50;5078977;28;20429;-72
2021/10/11 07:43:00;;;;;;;13.03;2.40;;;;;;;-145.18;0.00;102943.50;5078982;28;20224;-72
2021/10/11 07:45:25;;;;;;;7.37;2.23;;;;;;;-145.18;0.00;102943.50;5060641;28;20531;-72
2021/10/11 07:47:51;;;;;;;9.80;2.73;;;;;;;-145.18;0.00;102943.50;5076542;28;20020;-72
2021/10/11 07:50:16;;;;;;;6.63;2.37;;;;;;;-145.18;0.00;102943.50;5066034;28;20037;-72
2021/10/11 07:52:42;;;;;;;8.80;2.70;;;;;;;-145.18;0.00;102943.50;5059014;28;20070;-72
2021/10/11 07:55:08;;;;;;;13.20;2.87;;;;;;;-145.18;0.00;102943.50;5075960;28;20024;-72
2021/10/11 07:57:33;;;;;;;8.27;2.00;;;;;;;-145.18;0.00;102943.50;5078962;28;20092;-72
2021/10/11 08:00:00;;;;;;;8.90;2.30;;;;;;;-145.18;0.00;102943.50;5065973;28;20028;-72
2021/10/11 08:02:26;;;;;;;7.57;2.37;;;;;;;-145.18;0.00;102943.50;5060368;28;20103;-72
2021/10/11 08:04:52;;;;;;;12.03;2.60;;;;;;;-145.18;0.00;102943.50;5078282;28;20507;-72
2021/10/11 08:07:17;;;;;;;8.83;2.40;;;;;;;-145.18;0.00;102943.50;5078647;28;20020;-72
2021/10/11 08:09:43;;;;;;;11.30;2.33;;;;;;;-145.18;0.00;102943.50;5065584;28;20029;-72
2021/10/11 08:12:09;;;;;;;9.77;2.43;;;;;;;-145.18;0.00;102943.50;5076490;28;20044;-72
2021/10/11 08:14:35;;;;;;;7.73;2.03;;;;;;;-145.18;0.00;102943.50;5066435;28;20431;-72
2021/10/11 08:17:00;;;;;;;10.47;2.13;;;;;;;-145.18;0.00;102943.50;5058605;28;20055;-72
2021/10/11 08:19:26;;;;;;;10.47;1.97;;;;;;;-145.18;0.00;102943.50;5069751;28;20020;-72
2021/10/11 08:21:51;;;;;;;7.80;1.90;;;;;;;-145.18;0.00;102943.50;5078789;28;20386;-73
2021/10/11 08:24:17;;;;;;;7.17;1.90;;;;;;;-145.18;0.00;102943.50;5068583;28;20453;-72
2021/10/11 08:26:42;;;;;;;10.20;2.50;;;;;;;-145.18;0.00;102943.50;5058889;28;20219;-73
2021/10/11 08:29:10;;;;;;;11.07;1.83;;;;;;;-145.18;0.00;102943.50;5067092;28;20047;-73
2021/10/11 08:31:36;;;;;;;9.87;2.17;;;;;;;-145.18;0.00;102943.50;5078830;28;20028;-72
2021/10/11 08:34:06;;;;;;;6.03;1.90;;;;;;;-145.18;0.00;102943.50;5070591;28;20540;-73
2021/10/11 08:36:31;;;;;;;10.03;1.80;;;;;;;-145.18;0.00;102943.50;5058731;28;20510;-72
2021/10/11 08:38:57;;;;;;;7.27;1.70;;;;;;;-145.18;0.00;102943.50;5065683;28;20051;-72
2021/10/11 08:41:24;;;;;;;5.97;1.70;;;;;;;-145.18;0.00;102943.50;5078848;28;20091;-72
2021/10/11 08:43:50;;;;;;;8.17;1.70;;;;;;;-145.18;0.00;102943.50;5072343;28;20035;-72
2021/10/11 08:46:16;;;;;;;11.50;1.90;;;;;;;-145.18;0.00;102943.50;5058787;28;20093;-72
2021/10/11 08:48:42;;;;;;;5.27;1.70;;;;;;;-145.18;0.00;102943.50;5066273;28;20047;-73
2021/10/11 08:51:09;;;;;;;4.50;1.70;;;;;;;-145.18;0.00;102943.50;5080382;28;20116;-72
2021/10/11 08:53:36;;;;;;;8.23;1.87;;;;;;;-145.18;0.00;102943.50;5078493;28;20500;-72
2021/10/11 08:56:02;;;;;;;8.37;1.70;;;;;;;-145.18;0.00;102943.50;5066535;28;20052;-73
2021/10/11 08:58:28;;;;;;;8.70;2.00;;;;;;;-145.18;0.00;102943.50;5073734;28;20056;-74
2021/10/11 09:01:05;;;;;;;5.57;2.03;;;;;;;-145.18;0.00;102943.50;5082508;28;20065;-73
2021/10/11 09:03:31;;;;;;;5.93;1.90;;;;;;;-145.18;0.00;102943.50;5078737;28;20028;-73
2021/10/11 09:06:09;;;;;;;15.83;2.33;;;;;;;-145.18;0.00;102943.50;5061704;28;20437;-73
2021/10/11 09:08:35;;;;;;;10.40;2.10;;;;;;;-145.18;0.00;102943.50;5065807;28;20077;-72
2021/10/11 09:11:06;;;;;;;5.50;1.60;;;;;;;-145.18;0.00;102943.50;5082202;28;20522;-72
2021/10/11 09:13:39;;;;;;;6.73;1.93;;;;;;;-145.18;0.00;102943.50;5078398;28;20024;-73
2021/10/11 09:16:22;;;;;;;11.63;2.10;;;;;;;-145.18;0.00;102943.50;5061465;28;20174;-73
2021/10/11 09:18:53;;;;;;;12.70;1.80;;;;;;;-145.18;0.00;102943.50;5061977;28;20035;-73
2021/10/11 09:21:31;;;;;;;8.70;1.80;;;;;;;-145.18;0.00;102943.50;5061893;28;20224;-72
2021/10/11 09:24:11;;;;;;;6.70;1.60;;;;;;;-145.18;0.00;102943.50;5063179;28;20028;-73
2021/10/11 09:27:07;;;;;;;10.73;1.83;;;;;;;-145.18;0.00;102943.50;5061668;28;20056;-73
2021/10/11 09:29:34;;;;;;;7.60;1.63;;;;;;;-145.18;0.00;102943.50;5073181;28;20406;-73
2021/10/11 09:32:10;;;;;;;9.47;1.87;;;;;;;-145.18;0.00;102943.50;5081899;28;20032;-73
2021/10/11 09:34:38;;;;;;;6.60;1.63;;;;;;;-145.18;0.00;102943.50;5068970;28;20032;-73
2021/10/11 09:37:10;;;;;;;9.03;1.30;;;;;;;-145.18;0.00;102943.50;5061521;28;20048;-73
2021/10/11 09:39:38;;;;;;;8.65;2.10;;;;;;;-145.18;0.00;102943.50;5073990;28;20486;-73
2021/10/11 09:42:06;;;;;;;6.30;1.70;;;;;;;-145.18;0.00;102943.50;5081810;28;20020;-73
2021/10/11 09:44:32;;;;;;;5.57;1.67;;;;;;;-145.18;0.00;102943.50;5068193;28;20074;-72
2021/10/11 09:47:03;;;;;;;7.20;1.60;;;;;;;-145.18;0.00;102943.50;5061224;28;20016;-73
2021/10/11 09:49:28;;;;;;;9.03;1.60;;;;;;;-145.18;0.00;102943.50;5071936;28;20111;-73
2021/10/11 09:51:55;;;;;;;6.90;1.30;;;;;;;-145.18;0.00;102943.50;5061266;28;20185;-73
2021/10/11 09:54:21;;;;;;;5.83;1.40;;;;;;;-145.18;0.00;102943.50;5071555;28;20028;-72
2021/10/11 09:56:47;;;;;;;6.83;1.83;;;;;;;-145.18;0.00;102943.50;5069992;28;20028;-73
2021/10/11 09:59:16;;;;;;;5.53;1.60;;;;;;;-145.18;0.00;102943.50;5068968;28;20020;-73
2021/10/11 10:01:43;;;;;;;11.30;1.83;;;;;;;-145.18;0.00;102943.50;5081149;28;20381;-73
2021/10/11 10:04:23;;;;;;;5.33;1.40;;;;;;;-145.18;0.00;102943.50;5072343;28;20483;-73
2021/10/11 10:06:52;;;;;;;6.63;1.57;;;;;;;-145.18;0.00;102943.50;5060756;28;20024;-73
2021/10/11 10:09:19;;;;;;;12.83;1.70;;;;;;;-145.18;0.00;102943.50;5068921;28;20047;-73
2021/10/11 10:11:45;;;;;;;10.17;1.73;;;;;;;-145.18;0.00;102943.50;5080723;28;20040;-73
2021/10/11 10:14:22;;;;;;;6.47;1.30;;;;;;;-145.18;0.00;102943.50;5072055;28;20032;-73
2021/10/11 10:16:48;;;;;;;8.37;1.20;;;;;;;-145.18;0.00;102943.50;5060901;28;20269;-74
2021/10/11 10:19:14;;;;;;;4.00;0.90;;;;;;;-145.18;0.00;102943.50;5070156;28;20085;-73
2021/10/11 10:21:40;;;;;;;6.30;1.53;;;;;;;-145.18;0.00;102943.50;5081143;28;20259;-73
2021/10/11 10:24:07;;;;;;;3.40;1.30;;;;;;;-145.18;0.00;102943.50;5072622;28;20494;-72
2021/10/11 10:26:34;;;;;;;7.43;1.30;;;;;;;-145.18;0.00;102943.50;5060702;28;20266;-73
2021/10/11 10:29:11;;;;;;;6.50;1.20;;;;;;;-145.18;0.00;102943.50;5071279;28;20032;-72
2021/10/11 10:31:37;;;;;;;4.83;1.20;;;;;;;-145.18;0.00;102943.50;5080670;28;20386;-73
2021/10/11 10:34:20;;;;;;;5.43;1.13;;;;;;;-145.18;0.00;102943.50;5072543;28;20104;-73
2021/10/11 10:36:58;;;;;;;7.93;1.30;;;;;;;-145.18;0.00;102943.50;5060437;28;20510;-72
2021/10/11 10:39:39;;;;;;;11.27;1.67;;;;;;;-145.18;0.00;102943.50;5070487;28;20279;-72
2021/10/11 10:42:06;;;;;;;9.93;2.00;;;;;;;-145.18;0.00;102943.50;5080390;28;20319;-72
2021/10/11 10:44:31;;;;;;;6.03;1.10;;;;;;;-145.18;0.00;102943.50;5063583;28;20578;-73
2021/10/11 10:47:02;;;;;;;6.47;1.00;;;;;;;-145.18;0.00;102943.50;5064350;28;20027;-72
2021/10/11 10:49:39;;;;;;;4.50;1.40;;;;;;;-145.18;0.00;102943.50;5066977;28;20020;-73
2021/10/11 10:52:14;;;;;;;4.83;1.20;;;;;;;-145.18;0.00;102943.50;5060210;28;20078;-73
2021/10/11 10:54:49;;;;;;;6.00;1.40;;;;;;;-145.18;0.00;102943.50;5072878;28;20493;-73
2021/10/11 10:57:21;;;;;;;8.23;1.13;;;;;;;-145.18;0.00;102943.50;5080145;28;20228;-73
2021/10/11 10:59:55;;;;;;;9.82;1.50;;;;;;;-145.18;0.00;102943.50;5066175;28;20310;-73
2021/10/11 11:02:21;;;;;;;4.77;1.40;;;;;;;-145.18;0.00;102943.50;5059940;28;20374;-73
2021/10/11 11:05:02;;;;;;;8.40;1.23;;;;;;;-145.18;0.00;102943.50;5073759;28;20494;-73
2021/10/11 11:07:36;;;;;;;6.90;1.03;;;;;;;-145.18;0.00;102943.50;5079877;28;20371;-72